createdAt,value
2022-08-25T00:01:00.522Z,1.40
2022-08-25T00:04:24.713Z,1.03
2022-08-25T00:07:48.542Z,1.60
2022-08-25T00:11:17.625Z,1.10
2022-08-25T00:14:42.910Z,1.10
2022-08-25T00:18:19.583Z,1.33
2022-08-25T00:21:45.601Z,1.23
2022-08-25T00:25:10.761Z,1.40
2022-08-25T00:28:36.430Z,1.10
2022-08-25T00:32:01.170Z,1.20
2022-08-25T00:35:26.870Z,1.40
2022-08-25T00:38:51.929Z,1.23
2022-08-25T00:42:16.107Z,1.40
2022-08-25T00:45:41.509Z,1.50
2022-08-25T00:49:16.387Z,1.50
2022-08-25T00:52:53.961Z,1.73
2022-08-25T00:56:18.714Z,1.40
2022-08-25T00:59:45.589Z,1.53
2022-08-25T01:03:11.218Z,1.47
2022-08-25T01:06:42.004Z,1.73
2022-08-25T01:10:08.725Z,1.40
2022-08-25T01:13:36.588Z,1.30
2022-08-25T01:17:00.983Z,1.37
2022-08-25T01:20:29.744Z,1.70
2022-08-25T01:23:58.155Z,1.53
2022-08-25T01:27:21.977Z,1.77
2022-08-25T01:30:46.024Z,1.67
2022-08-25T01:34:12.624Z,1.60
2022-08-25T01:37:36.926Z,1.60
2022-08-25T01:41:01.733Z,1.60
2022-08-25T01:44:25.570Z,1.43
2022-08-25T01:47:49.058Z,1.60
2022-08-25T01:51:12.642Z,1.43
2022-08-25T01:54:36.150Z,1.63
2022-08-25T01:58:01.189Z,1.73
2022-08-25T02:01:26.375Z,1.70
2022-08-25T02:04:50.683Z,1.53
2022-08-25T02:08:14.261Z,1.57
2022-08-25T02:11:40.588Z,1.60
2022-08-25T02:15:09.846Z,2.00
2022-08-25T02:18:33.483Z,1.73
2022-08-25T02:21:56.968Z,1.73
2022-08-25T02:25:21.689Z,1.73
2022-08-25T02:28:46.058Z,1.70
2022-08-25T02:32:10.928Z,2.10
2022-08-25T02:35:34.392Z,1.73
2022-08-25T02:38:58.018Z,1.43
2022-08-25T02:42:21.933Z,1.60
2022-08-25T02:45:45.420Z,1.57
2022-08-25T02:49:10.365Z,1.67
2022-08-25T02:52:35.249Z,1.53
2022-08-25T02:55:58.696Z,1.60
2022-08-25T02:59:22.207Z,1.70
2022-08-25T03:02:46.762Z,1.40
2022-08-25T03:06:14.018Z,1.60
2022-08-25T03:09:38.234Z,1.90
2022-08-25T03:13:01.762Z,1.90
2022-08-25T03:16:27.791Z,1.70
2022-08-25T03:19:51.600Z,1.40
2022-08-25T03:23:16.370Z,1.50
2022-08-25T03:26:55.816Z,1.60
2022-08-25T03:30:19.916Z,1.57
2022-08-25T03:33:43.901Z,1.67
2022-08-25T03:37:08.570Z,1.70
2022-08-25T03:40:33.750Z,1.30
2022-08-25T03:43:58.254Z,1.40
2022-08-25T03:47:24.785Z,1.60
2022-08-25T03:50:51.912Z,1.77
2022-08-25T03:54:17.895Z,1.70
2022-08-25T03:57:42.883Z,1.60
2022-08-25T04:01:06.700Z,1.70
2022-08-25T04:04:31.080Z,1.87
2022-08-25T04:07:55.792Z,1.53
2022-08-25T04:11:23.973Z,1.53
2022-08-25T04:14:49.217Z,1.90
2022-08-25T04:18:13.233Z,1.80
2022-08-25T04:21:38.906Z,1.53
2022-08-25T04:25:02.455Z,1.73
2022-08-25T04:28:25.901Z,1.50
2022-08-25T04:31:51.734Z,1.90
2022-08-25T04:35:15.283Z,1.83
2022-08-25T04:38:40.155Z,1.37
2022-08-25T04:42:04.570Z,1.70
2022-08-25T04:45:28.179Z,1.93
2022-08-25T04:48:55.667Z,1.57
2022-08-25T04:52:19.586Z,2.00
2022-08-25T04:55:44.514Z,1.90
2022-08-25T04:59:15.873Z,2.20
2022-08-25T05:02:39.316Z,1.93
2022-08-25T05:06:05.820Z,1.97
2022-08-25T05:09:32.469Z,2.10
2022-08-25T05:12:56.325Z,1.60
2022-08-25T05:16:22.715Z,1.70
2022-08-25T05:19:46.856Z,1.80
2022-08-25T05:23:11.688Z,1.80
2022-08-25T05:26:36.587Z,1.90
2022-08-25T05:30:00.016Z,1.90
2022-08-25T05:33:23.478Z,2.30
2022-08-25T05:36:47.100Z,2.00
2022-08-25T05:40:12.604Z,2.27
2022-08-25T05:43:38.252Z,2.20
2022-08-25T05:47:01.810Z,2.50
2022-08-25T05:50:26.209Z,1.73
2022-08-25T05:53:52.154Z,2.20
2022-08-25T05:57:17.172Z,2.03
2022-08-25T06:00:41.410Z,2.10
2022-08-25T06:04:05.163Z,2.17
2022-08-25T06:07:28.771Z,2.40
2022-08-25T06:10:54.059Z,2.33
2022-08-25T06:14:19.115Z,2.20
2022-08-25T06:17:43.124Z,2.50
2022-08-25T06:21:13.117Z,2.70
2022-08-25T06:24:37.009Z,2.87
2022-08-25T06:28:00.575Z,2.30
2022-08-25T06:31:25.493Z,2.40
2022-08-25T06:34:49.123Z,2.50
2022-08-25T06:38:13.555Z,2.23
2022-08-25T06:41:37.560Z,2.20
2022-08-25T06:45:01.328Z,2.33
2022-08-25T06:48:26.274Z,2.60
2022-08-25T06:51:50.511Z,2.50
2022-08-25T06:55:14.006Z,2.20
2022-08-25T06:58:38.139Z,1.97
2022-08-25T07:02:03.301Z,2.30
2022-08-25T07:05:40.939Z,2.00
2022-08-25T07:09:09.537Z,2.43
2022-08-25T07:12:33.089Z,1.93
2022-08-25T07:15:56.896Z,1.93
2022-08-25T07:19:21.707Z,1.70
2022-08-25T07:22:46.590Z,2.37
2022-08-25T07:26:36.212Z,1.83
2022-08-25T07:29:58.884Z,1.90
2022-08-25T07:33:22.410Z,2.07
2022-08-25T07:36:45.012Z,2.10
2022-08-25T07:40:14.155Z,2.10
2022-08-25T07:43:37.959Z,2.03
2022-08-25T07:47:01.660Z,2.37
2022-08-25T07:50:25.607Z,1.83
2022-08-25T07:53:49.195Z,2.00
2022-08-25T07:57:14.070Z,2.20
2022-08-25T08:00:40.496Z,2.27
2022-08-25T08:04:06.200Z,2.10
2022-08-25T08:07:42.117Z,2.07
2022-08-25T08:11:07.571Z,1.70
2022-08-25T08:14:34.574Z,1.70
2022-08-25T08:17:58.393Z,1.90
2022-08-25T08:21:26.685Z,1.93
2022-08-25T08:24:54.794Z,2.10
2022-08-25T08:28:19.811Z,1.43
2022-08-25T08:31:48.542Z,1.63
2022-08-25T08:35:12.409Z,1.60
2022-08-25T08:38:37.563Z,1.57
2022-08-25T08:42:22.184Z,2.10
2022-08-25T08:45:53.102Z,1.97
2022-08-25T08:49:32.461Z,2.00
2022-08-25T08:53:06.658Z,1.90
2022-08-25T08:56:37.400Z,1.90
2022-08-25T09:00:11.920Z,2.00
2022-08-25T09:03:40.600Z,1.90
2022-08-25T09:07:14.251Z,1.97
2022-08-25T09:10:57.495Z,2.10
2022-08-25T09:14:45.154Z,1.40
2022-08-25T09:18:24.213Z,1.90
2022-08-25T09:21:57.611Z,1.80
2022-08-25T09:25:52.644Z,1.60
2022-08-25T09:29:26.158Z,1.70
2022-08-25T09:33:02.009Z,1.50
2022-08-25T09:36:26.797Z,1.90
2022-08-25T09:39:50.309Z,2.13
2022-08-25T09:43:24.747Z,1.70
2022-08-25T09:47:08.473Z,2.00
2022-08-25T09:50:34.948Z,1.70
2022-08-25T09:54:10.814Z,1.70
2022-08-25T09:57:45.752Z,1.47
2022-08-25T10:01:24.324Z,1.80
2022-08-25T10:04:47.982Z,1.70
2022-08-25T10:08:32.554Z,1.70
2022-08-25T10:11:57.706Z,1.37
2022-08-25T10:15:29.422Z,1.70
2022-08-25T10:19:11.178Z,1.57
2022-08-25T10:22:34.776Z,1.93
2022-08-25T10:26:04.650Z,1.50
2022-08-25T10:30:05.361Z,1.63
2022-08-25T10:33:45.230Z,1.50
2022-08-25T10:37:25.210Z,1.60
2022-08-25T10:40:58.149Z,1.50
2022-08-25T10:44:51.598Z,1.80
2022-08-25T10:48:34.151Z,1.70
2022-08-25T10:52:04.596Z,1.73
2022-08-25T10:55:40.244Z,1.90
2022-08-25T10:59:29.811Z,1.57
2022-08-25T11:03:28.148Z,1.57
2022-08-25T11:07:04.094Z,1.60
2022-08-25T11:10:43.770Z,1.70
2022-08-25T11:14:16.896Z,1.50
2022-08-25T11:17:50.162Z,1.70
2022-08-25T11:21:22.033Z,1.60
2022-08-25T11:25:04.028Z,1.73
2022-08-25T11:28:41.207Z,1.20
2022-08-25T11:32:06.164Z,1.53
2022-08-25T11:35:38.094Z,1.60
2022-08-25T11:39:17.724Z,1.43
2022-08-25T11:43:00.567Z,1.40
2022-08-25T11:46:50.918Z,1.40
2022-08-25T11:50:35.099Z,1.40
2022-08-25T11:54:20.986Z,1.20
2022-08-25T11:57:51.623Z,1.40
2022-08-25T12:02:28.977Z,1.27
2022-08-25T12:06:19.969Z,1.37
2022-08-25T12:10:20.670Z,1.40
2022-08-25T12:13:48.166Z,1.40
2022-08-25T12:17:26.665Z,1.20
2022-08-25T12:21:17.542Z,1.30
2022-08-25T12:24:56.937Z,1.33
2022-08-25T12:28:46.757Z,1.30
2022-08-25T12:32:32.730Z,1.20
2022-08-25T12:36:01.012Z,1.50
2022-08-25T12:39:32.474Z,1.50
2022-08-25T12:43:10.018Z,1.63
2022-08-25T12:46:37.849Z,1.40
2022-08-25T12:50:37.256Z,1.13
2022-08-25T12:54:19.113Z,1.40
2022-08-25T12:57:57.722Z,1.30
2022-08-25T13:01:38.890Z,1.50
2022-08-25T13:06:05.790Z,1.30
2022-08-25T13:10:20.614Z,1.10
2022-08-25T13:13:52.810Z,1.40
2022-08-25T13:17:27.662Z,1.40
2022-08-25T13:21:02.797Z,1.37
2022-08-25T13:24:31.594Z,1.20
2022-08-25T13:28:11.216Z,1.30
2022-08-25T13:31:38.417Z,1.60
2022-08-25T13:35:19.623Z,1.00
2022-08-25T13:38:45.864Z,1.23
2022-08-25T13:42:16.918Z,1.20
2022-08-25T13:45:44.395Z,1.20
2022-08-25T13:49:10.451Z,1.30
2022-08-25T13:52:36.029Z,1.37
2022-08-25T13:56:02.507Z,1.30
2022-08-25T13:59:42.837Z,1.40
2022-08-25T14:03:06.934Z,1.40
2022-08-25T14:06:36.444Z,1.37
2022-08-25T14:10:06.996Z,1.30
2022-08-25T14:13:33.061Z,1.43
2022-08-25T14:17:12.010Z,1.37
2022-08-25T14:20:50.482Z,1.50
2022-08-25T14:24:18.559Z,1.20
2022-08-25T14:28:16.367Z,1.30
2022-08-25T14:31:44.822Z,1.40
2022-08-25T14:35:10.306Z,1.40
2022-08-25T14:38:35.213Z,1.30
2022-08-25T14:41:58.828Z,1.23
2022-08-25T14:45:23.766Z,1.40
2022-08-25T14:48:54.483Z,1.53
2022-08-25T14:52:23.443Z,1.43
2022-08-25T14:55:47.750Z,1.27
2022-08-25T14:59:11.379Z,1.27
2022-08-25T15:02:42.274Z,1.43
2022-08-25T15:06:07.630Z,1.13
2022-08-25T15:09:33.878Z,1.40
2022-08-25T15:12:57.407Z,1.30
2022-08-25T15:16:34.096Z,1.47
2022-08-25T15:20:00.316Z,1.10
2022-08-25T15:23:23.948Z,1.60
2022-08-25T15:30:21.529Z,1.47
2022-08-25T15:33:54.819Z,1.43
2022-08-25T15:37:19.854Z,1.63
2022-08-25T15:40:43.346Z,1.30
2022-08-25T15:44:10.341Z,1.70
2022-08-25T15:47:33.996Z,1.57
2022-08-25T15:51:00.859Z,1.30
2022-08-25T15:54:27.175Z,1.57
2022-08-25T15:57:50.836Z,1.60
2022-08-25T16:01:15.411Z,1.40
2022-08-25T16:04:43.055Z,1.67
2022-08-25T16:08:09.416Z,1.30
2022-08-25T16:11:45.043Z,1.33
2022-08-25T16:15:23.743Z,1.47
2022-08-25T16:18:53.643Z,1.40
2022-08-25T16:22:17.271Z,1.23
2022-08-25T16:25:42.842Z,1.33
2022-08-25T16:29:12.386Z,1.40
2022-08-25T16:32:36.522Z,1.30
2022-08-25T16:36:07.698Z,1.40
2022-08-25T16:39:32.360Z,1.60
2022-08-25T16:42:56.230Z,1.70
2022-08-25T16:46:23.920Z,1.30
2022-08-25T16:49:48.478Z,1.43
2022-08-25T16:53:29.705Z,1.80
2022-08-25T16:56:55.148Z,1.77
2022-08-25T17:00:23.125Z,1.77
2022-08-25T17:03:49.000Z,1.73
2022-08-25T17:07:13.339Z,1.50
2022-08-25T17:10:44.623Z,1.40
2022-08-25T17:14:11.177Z,1.20
2022-08-25T17:17:36.452Z,1.50
2022-08-25T17:21:05.947Z,1.57
2022-08-25T17:24:31.641Z,1.40
2022-08-25T17:27:56.111Z,1.60
2022-08-25T17:31:20.436Z,1.30
2022-08-25T17:34:44.251Z,1.40
2022-08-25T17:38:09.901Z,1.33
2022-08-25T17:41:37.655Z,1.37
2022-08-25T17:45:01.714Z,1.40
2022-08-25T17:48:26.290Z,1.30
2022-08-25T17:51:49.822Z,1.30
2022-08-25T17:55:15.599Z,1.47
2022-08-25T17:58:39.407Z,1.50
2022-08-25T18:02:03.007Z,1.40
2022-08-25T18:05:29.038Z,1.73
2022-08-25T18:08:58.751Z,1.67
2022-08-25T18:12:27.499Z,1.30
2022-08-25T18:15:51.230Z,1.57
2022-08-25T18:19:16.361Z,1.47
2022-08-25T18:22:41.977Z,1.63
2022-08-25T18:26:07.762Z,1.60
2022-08-25T18:29:32.730Z,1.43
2022-08-25T18:32:56.376Z,1.60
2022-08-25T18:36:21.504Z,1.60
2022-08-25T18:40:02.831Z,1.50
2022-08-25T18:43:26.670Z,1.70
2022-08-25T18:46:52.870Z,1.50
2022-08-25T18:50:17.923Z,1.57
2022-08-25T18:53:50.143Z,1.40
2022-08-25T18:57:14.295Z,1.37
2022-08-25T19:00:41.650Z,1.70
2022-08-25T19:04:07.548Z,1.80
2022-08-25T19:07:32.541Z,1.73
2022-08-25T19:10:56.351Z,1.50
2022-08-25T19:14:20.350Z,1.60
2022-08-25T19:17:44.010Z,2.10
2022-08-25T19:21:09.641Z,1.90
2022-08-25T19:24:33.125Z,2.00
2022-08-25T19:27:58.411Z,2.20
2022-08-25T19:31:33.010Z,1.53
2022-08-25T19:34:57.340Z,1.80
2022-08-25T19:38:35.350Z,1.87
2022-08-25T19:41:59.539Z,1.87
2022-08-25T19:45:24.946Z,1.70
2022-08-25T19:48:49.122Z,1.63
2022-08-25T19:52:16.648Z,2.10
2022-08-25T19:55:42.716Z,1.90
2022-08-25T19:59:06.970Z,2.13
2022-08-25T20:02:30.564Z,1.57
2022-08-25T20:05:55.801Z,1.90
2022-08-25T20:09:21.141Z,1.87
2022-08-25T20:13:03.655Z,1.80
2022-08-25T20:16:28.117Z,1.80
2022-08-25T20:19:52.265Z,2.30
2022-08-25T20:23:33.454Z,2.37
2022-08-25T20:26:57.334Z,1.90
2022-08-25T20:30:25.674Z,1.97
2022-08-25T20:33:49.217Z,1.97
2022-08-25T20:37:13.422Z,1.47
2022-08-25T20:40:37.076Z,1.60
2022-08-25T20:44:00.624Z,1.70
2022-08-25T20:47:25.700Z,2.00
2022-08-25T20:50:54.527Z,1.50
2022-08-25T20:54:21.333Z,1.60
2022-08-25T20:57:46.449Z,1.87
2022-08-25T21:01:11.413Z,1.63
2022-08-25T21:04:36.978Z,2.10
2022-08-25T21:08:02.848Z,1.87
2022-08-25T21:11:26.936Z,2.33
2022-08-25T21:14:51.862Z,2.00
2022-08-25T21:18:16.146Z,2.30
2022-08-25T21:21:41.410Z,1.70
2022-08-25T21:25:09.462Z,2.23
2022-08-25T21:28:34.388Z,2.10
2022-08-25T21:31:59.675Z,2.07
2022-08-25T21:35:23.815Z,2.10
2022-08-25T21:38:50.270Z,2.33
2022-08-25T21:42:13.764Z,2.33
2022-08-25T21:45:44.497Z,2.30
2022-08-25T21:49:10.761Z,2.27
2022-08-25T21:52:35.182Z,2.23
2022-08-25T21:56:04.925Z,2.37
2022-08-25T21:59:31.442Z,2.00
2022-08-25T22:02:55.118Z,1.93
2022-08-25T22:06:21.747Z,1.70
2022-08-25T22:09:45.245Z,1.80
2022-08-25T22:13:10.138Z,1.80
2022-08-25T22:16:35.806Z,1.70
2022-08-25T22:19:59.291Z,2.00
2022-08-25T22:23:22.813Z,1.90
2022-08-25T22:26:52.505Z,1.83
2022-08-25T22:30:19.272Z,1.87
2022-08-25T22:33:44.074Z,2.30
2022-08-25T22:37:08.268Z,1.80
2022-08-25T22:40:36.595Z,2.03
2022-08-25T22:44:01.129Z,1.90
2022-08-25T22:47:29.938Z,2.13
2022-08-25T22:50:53.426Z,1.97
2022-08-25T22:54:16.975Z,1.70
2022-08-25T22:57:41.507Z,1.97
2022-08-25T23:01:12.345Z,2.00
2022-08-25T23:04:41.233Z,1.87
2022-08-25T23:08:07.053Z,2.10
2022-08-25T23:11:30.938Z,2.07
2022-08-25T23:14:55.219Z,1.83
2022-08-25T23:18:19.458Z,1.73
2022-08-25T23:22:03.851Z,1.60
2022-08-25T23:25:28.501Z,1.77
2022-08-25T23:28:52.244Z,1.77
2022-08-25T23:32:17.259Z,1.63
2022-08-25T23:35:42.134Z,1.37
2022-08-25T23:39:08.542Z,1.77
2022-08-25T23:42:33.023Z,1.70
2022-08-25T23:45:56.687Z,2.00
2022-08-25T23:49:24.055Z,1.70
2022-08-25T23:52:47.575Z,2.03
2022-08-25T23:56:12.921Z,2.00
2022-08-25T23:59:38.271Z,1.77
